createdAt,value
2022-09-28T00:01:23.639Z,14.70
2022-09-28T00:03:53.583Z,15.25
2022-09-28T00:06:24.580Z,15.45
2022-09-28T00:08:51.942Z,15.57
2022-09-28T00:11:21.684Z,14.48
2022-09-28T00:13:51.802Z,24.48
2022-09-28T00:16:22.869Z,19.70
2022-09-28T00:18:52.512Z,18.77
2022-09-28T00:21:25.043Z,21.73
2022-09-28T00:24:22.936Z,24.35
2022-09-28T00:26:55.384Z,18.42
2022-09-28T00:29:23.627Z,16.92
2022-09-28T00:32:00.085Z,19.00
2022-09-28T00:34:27.566Z,21.23
2022-09-28T00:36:54.806Z,15.30
2022-09-28T00:39:21.817Z,14.25
2022-09-28T00:41:49.164Z,12.52
2022-09-28T00:44:25.605Z,10.55
2022-09-28T00:47:08.313Z,14.40
2022-09-28T00:49:42.916Z,17.17
2022-09-28T00:52:15.872Z,14.05
2022-09-28T00:54:46.046Z,18.35
2022-09-28T00:57:14.017Z,16.98
2022-09-28T00:59:42.248Z,13.20
2022-09-28T01:02:10.704Z,12.57
2022-09-28T01:04:38.945Z,13.48
2022-09-28T01:07:09.027Z,16.25
2022-09-28T01:09:39.262Z,12.07
2022-09-28T01:12:07.237Z,10.25
2022-09-28T01:14:34.524Z,10.50
2022-09-28T01:17:13.651Z,14.20
2022-09-28T01:20:07.934Z,9.57
2022-09-28T01:23:00.314Z,11.43
2022-09-28T01:25:39.414Z,12.25
2022-09-28T01:28:18.108Z,17.77
2022-09-28T01:31:00.063Z,9.68
2022-09-28T01:33:37.304Z,8.63
2022-09-28T01:36:25.329Z,12.73
2022-09-28T01:39:06.281Z,11.05
2022-09-28T01:41:36.952Z,9.75
2022-09-28T01:44:08.905Z,14.05
2022-09-28T01:46:44.777Z,20.92
2022-09-28T01:49:24.402Z,21.38
2022-09-28T01:51:57.974Z,34.28
2022-09-28T01:54:36.554Z,29.92
2022-09-28T01:57:18.576Z,33.78
2022-09-28T01:59:56.482Z,21.63
2022-09-28T02:02:32.611Z,25.33
2022-09-28T02:05:17.195Z,21.13
2022-09-28T02:08:04.329Z,20.73
2022-09-28T02:10:54.598Z,17.50
2022-09-28T02:13:31.082Z,18.70
2022-09-28T02:16:23.185Z,17.73
2022-09-28T02:18:51.471Z,20.13
2022-09-28T02:21:24.126Z,14.07
2022-09-28T02:24:10.166Z,18.67
2022-09-28T02:26:42.179Z,29.55
2022-09-28T02:29:09.374Z,18.40
2022-09-28T02:31:36.396Z,21.17
2022-09-28T02:34:03.631Z,20.67
2022-09-28T02:36:31.470Z,12.77
2022-09-28T02:38:58.578Z,12.52
2022-09-28T02:41:46.902Z,11.05
2022-09-28T02:44:30.758Z,12.32
2022-09-28T02:47:10.905Z,15.05
2022-09-28T02:50:07.239Z,12.77
2022-09-28T02:52:40.175Z,12.27
2022-09-28T02:55:12.867Z,15.60
2022-09-28T02:57:46.032Z,18.02
2022-09-28T03:00:19.456Z,21.77
2022-09-28T03:03:18.127Z,17.08
2022-09-28T03:06:21.527Z,16.27
2022-09-28T03:08:58.119Z,13.85
2022-09-28T03:11:52.002Z,18.20
2022-09-28T03:14:19.544Z,17.60
2022-09-28T03:16:51.861Z,16.70
2022-09-28T03:19:25.039Z,18.77
2022-09-28T03:21:52.295Z,20.38
2022-09-28T03:24:19.251Z,12.38
2022-09-28T03:26:46.657Z,11.55
2022-09-28T03:29:14.533Z,12.63
2022-09-28T03:31:44.389Z,14.95
2022-09-28T03:34:12.025Z,15.05
2022-09-28T03:36:38.992Z,14.45
2022-09-28T03:39:05.888Z,18.48
2022-09-28T03:41:32.835Z,16.23
2022-09-28T03:43:59.871Z,13.75
2022-09-28T03:46:28.577Z,15.73
2022-09-28T03:49:01.645Z,18.67
2022-09-28T03:51:29.119Z,19.02
2022-09-28T03:53:56.042Z,15.15
2022-09-28T03:56:23.127Z,12.70
2022-09-28T03:58:50.339Z,12.80
2022-09-28T04:01:18.022Z,13.23
2022-09-28T04:03:47.225Z,10.95
2022-09-28T04:06:14.971Z,17.67
2022-09-28T04:08:43.139Z,14.60
2022-09-28T04:11:09.995Z,16.27
2022-09-28T04:13:37.381Z,12.82
2022-09-28T04:16:06.265Z,23.13
2022-09-28T04:18:35.276Z,13.88
2022-09-28T04:21:11.489Z,18.20
2022-09-28T04:23:42.652Z,14.07
2022-09-28T04:26:25.449Z,14.98
2022-09-28T04:29:11.367Z,10.38
2022-09-28T04:31:53.613Z,15.43
2022-09-28T04:34:23.677Z,16.73
2022-09-28T04:36:51.290Z,16.73
2022-09-28T04:39:21.859Z,25.75
2022-09-28T04:41:52.123Z,29.80
2022-09-28T04:44:19.177Z,21.85
2022-09-28T04:47:04.225Z,23.02
2022-09-28T04:49:32.028Z,15.63
2022-09-28T04:52:07.826Z,14.43
2022-09-28T04:54:35.490Z,17.27
2022-09-28T04:57:03.843Z,18.65
2022-09-28T04:59:30.879Z,19.42
2022-09-28T05:01:58.051Z,24.20
2022-09-28T05:04:43.642Z,16.52
2022-09-28T05:07:31.484Z,21.98
2022-09-28T05:10:01.808Z,29.73
2022-09-28T05:12:31.225Z,18.42
2022-09-28T05:15:00.668Z,25.92
2022-09-28T05:17:28.680Z,20.30
2022-09-28T05:20:24.485Z,18.63
2022-09-28T05:22:52.319Z,21.15
2022-09-28T05:25:19.411Z,20.67
2022-09-28T05:27:57.534Z,21.83
2022-09-28T05:30:39.586Z,21.88
2022-09-28T05:33:26.447Z,22.60
2022-09-28T05:36:13.252Z,20.10
2022-09-28T05:38:42.107Z,27.48
2022-09-28T05:41:09.291Z,27.15
2022-09-28T05:43:36.730Z,46.65
2022-09-28T05:46:06.143Z,31.38
2022-09-28T05:48:35.940Z,25.80
2022-09-28T05:51:02.973Z,25.80
2022-09-28T05:53:30.467Z,32.15
2022-09-28T05:55:59.683Z,20.25
2022-09-28T05:58:28.150Z,15.90
2022-09-28T06:00:58.464Z,22.33
2022-09-28T06:03:27.208Z,25.40
2022-09-28T06:05:54.604Z,19.13
2022-09-28T06:08:21.826Z,16.58
2022-09-28T06:11:01.056Z,19.38
2022-09-28T06:13:28.966Z,19.23
2022-09-28T06:15:56.128Z,28.92
2022-09-28T06:18:23.222Z,20.13
2022-09-28T06:21:14.825Z,18.67
2022-09-28T06:23:48.998Z,19.15
2022-09-28T06:26:17.703Z,15.77
2022-09-28T06:28:45.576Z,28.80
2022-09-28T06:31:13.843Z,33.28
2022-09-28T06:33:45.489Z,21.15
2022-09-28T06:36:13.823Z,25.75
2022-09-28T06:38:40.785Z,16.92
2022-09-28T06:41:08.059Z,28.25
2022-09-28T06:43:35.331Z,27.30
2022-09-28T06:46:21.443Z,16.58
2022-09-28T06:48:49.078Z,22.95
2022-09-28T06:51:25.328Z,19.10
2022-09-28T06:54:07.327Z,21.73
2022-09-28T06:56:40.284Z,29.70
2022-09-28T06:59:07.244Z,25.20
2022-09-28T07:01:35.718Z,21.95
2022-09-28T07:04:18.502Z,26.85
2022-09-28T07:07:18.463Z,27.00
2022-09-28T07:10:04.473Z,23.40
2022-09-28T07:12:44.316Z,24.95
2022-09-28T07:15:24.826Z,21.23
2022-09-28T07:18:02.784Z,20.08
2022-09-28T07:20:45.382Z,27.40
2022-09-28T07:23:19.810Z,26.73
2022-09-28T07:26:08.149Z,21.45
2022-09-28T07:28:56.043Z,29.75
2022-09-28T07:31:33.797Z,34.10
2022-09-28T07:34:44.147Z,31.05
2022-09-28T07:37:19.018Z,24.70
2022-09-28T07:40:06.207Z,24.65
2022-09-28T07:42:38.425Z,24.02
2022-09-28T07:45:07.462Z,20.35
2022-09-28T07:47:35.385Z,27.48
2022-09-28T07:50:32.430Z,23.45
2022-09-28T07:53:06.283Z,19.48
2022-09-28T07:56:07.469Z,20.33
2022-09-28T07:58:43.184Z,15.05
2022-09-28T08:01:31.411Z,15.82
2022-09-28T08:04:00.169Z,21.17
2022-09-28T08:06:27.072Z,18.23
2022-09-28T08:08:56.818Z,8.15
2022-09-28T08:11:32.783Z,6.35
2022-09-28T08:14:23.664Z,14.35
2022-09-28T08:20:03.155Z,8.80
2022-09-28T08:22:32.487Z,10.68
2022-09-28T08:25:00.658Z,11.05
2022-09-28T08:27:29.882Z,8.23
2022-09-28T08:29:56.940Z,16.45
2022-09-28T08:32:59.759Z,13.02
2022-09-28T08:35:42.380Z,9.07
2022-09-28T08:38:14.992Z,16.17
2022-09-28T08:41:21.507Z,11.93
2022-09-28T08:44:16.238Z,12.23
2022-09-28T08:47:30.060Z,21.50
2022-09-28T08:50:29.350Z,10.43
2022-09-28T08:53:38.974Z,11.75
2022-09-28T08:56:32.741Z,14.13
2022-09-28T08:59:04.594Z,13.80
2022-09-28T09:01:38.789Z,15.45
2022-09-28T09:04:10.492Z,11.60
2022-09-28T09:07:25.115Z,20.63
2022-09-28T09:10:36.715Z,9.38
2022-09-28T09:13:23.793Z,12.80
2022-09-28T09:16:24.365Z,13.68
2022-09-28T09:19:36.563Z,15.10
2022-09-28T09:22:42.351Z,19.15
2022-09-28T09:25:35.373Z,17.75
2022-09-28T09:28:35.384Z,19.02
2022-09-28T09:31:20.727Z,10.15
2022-09-28T09:34:25.531Z,10.32
2022-09-28T09:37:28.600Z,8.05
2022-09-28T09:44:18.535Z,6.15
2022-09-28T09:47:13.600Z,6.25
2022-09-28T09:50:30.460Z,5.53
2022-09-28T09:53:06.921Z,3.58
2022-09-28T09:55:42.104Z,7.03
2022-09-28T10:13:13.626Z,10.35
2022-09-28T10:15:42.554Z,10.20
2022-09-28T10:18:21.091Z,7.65
2022-09-28T10:21:06.935Z,11.35
2022-09-28T10:23:59.734Z,8.70
2022-09-28T10:26:36.226Z,7.40
2022-09-28T10:29:13.239Z,12.55
2022-09-28T10:31:45.473Z,22.83
2022-09-28T10:34:28.879Z,17.35
2022-09-28T10:37:01.407Z,15.95
2022-09-28T10:39:47.190Z,8.77
2022-09-28T10:42:21.261Z,31.80
2022-09-28T10:45:23.449Z,6.03
2022-09-28T10:47:52.220Z,8.35
2022-09-28T10:50:23.787Z,9.00
2022-09-28T10:53:32.097Z,11.55
2022-09-28T10:56:18.503Z,6.57
2022-09-28T10:58:47.036Z,12.55
2022-09-28T11:01:26.866Z,8.20
2022-09-28T11:04:02.558Z,11.68
2022-09-28T11:06:32.959Z,8.88
2022-09-28T11:09:03.125Z,14.85
2022-09-28T11:11:32.047Z,14.45
2022-09-28T11:14:04.287Z,7.15
2022-09-28T11:16:36.756Z,6.93
2022-09-28T11:19:20.332Z,11.07
2022-09-28T11:21:48.593Z,6.05
2022-09-28T11:24:19.101Z,8.38
2022-09-28T11:26:50.310Z,8.77
2022-09-28T11:29:45.511Z,5.28
2022-09-28T11:32:24.620Z,9.05
2022-09-28T11:35:19.878Z,10.35
2022-09-28T11:37:59.642Z,6.25
2022-09-28T11:41:15.684Z,5.63
2022-09-28T11:44:05.728Z,7.97
2022-09-28T11:46:44.581Z,6.55
2022-09-28T11:49:22.776Z,3.90
2022-09-28T11:51:52.874Z,11.20
2022-09-28T11:54:19.892Z,6.38
2022-09-28T11:56:49.880Z,6.70
2022-09-28T11:59:40.004Z,7.28
2022-09-28T12:02:17.080Z,5.13
2022-09-28T12:05:07.979Z,4.32
2022-09-28T12:07:44.731Z,13.15
2022-09-28T12:11:00.907Z,9.82
2022-09-28T12:14:04.882Z,10.85
2022-09-28T12:19:44.214Z,12.07
2022-09-28T12:22:25.604Z,6.93
2022-09-28T12:24:56.787Z,8.30
2022-09-28T12:27:29.783Z,6.40
2022-09-28T12:30:04.628Z,8.68
2022-09-28T12:32:47.001Z,4.22
2022-09-28T12:35:20.186Z,9.98
2022-09-28T12:38:24.700Z,7.50
2022-09-28T12:40:55.806Z,10.32
2022-09-28T12:43:33.558Z,5.25
2022-09-28T12:46:13.854Z,10.38
2022-09-28T12:49:51.466Z,6.30
2022-09-28T12:51:55.024Z,7.72
2022-09-28T12:54:42.172Z,5.22
2022-09-28T12:57:24.493Z,13.98
2022-09-28T13:00:12.516Z,4.00
2022-09-28T13:03:07.825Z,3.00
2022-09-28T13:06:07.093Z,4.43
2022-09-28T13:09:06.747Z,4.07
2022-09-28T13:11:43.907Z,6.28
2022-09-28T13:14:49.757Z,7.07
2022-09-28T13:18:01.031Z,7.63
2022-09-28T13:20:35.900Z,8.20
2022-09-28T13:23:16.577Z,6.53
2022-09-28T13:25:51.042Z,7.00
2022-09-28T13:28:26.174Z,8.68
2022-09-28T13:33:45.080Z,6.07
2022-09-28T13:36:33.037Z,11.93
2022-09-28T13:39:00.930Z,7.90
2022-09-28T13:41:40.508Z,6.47
2022-09-28T13:44:13.946Z,3.50
2022-09-28T13:47:10.184Z,5.10
2022-09-28T13:49:56.716Z,3.53
2022-09-28T13:52:44.567Z,8.77
2022-09-28T13:55:22.303Z,8.00
2022-09-28T13:57:54.281Z,5.25
2022-09-28T14:00:44.472Z,7.30
2022-09-28T14:03:26.138Z,4.20
2022-09-28T14:06:04.613Z,4.85
2022-09-28T14:08:38.679Z,4.93
2022-09-28T14:11:36.887Z,6.65
2022-09-28T14:14:14.773Z,6.75
2022-09-28T14:16:43.414Z,4.18
2022-09-28T14:19:32.444Z,4.20
2022-09-28T14:22:11.453Z,6.63
2022-09-28T14:24:48.243Z,4.82
2022-09-28T14:29:54.302Z,5.70
2022-09-28T14:32:24.209Z,3.15
2022-09-28T14:35:01.653Z,3.58
2022-09-28T14:37:56.406Z,4.47
2022-09-28T14:40:49.752Z,6.50
2022-09-28T14:43:35.832Z,8.73
2022-09-28T14:46:12.892Z,5.10
2022-09-28T14:48:49.195Z,4.65
2022-09-28T14:54:14.124Z,4.40
2022-09-28T14:57:09.739Z,5.57
2022-09-28T14:59:43.588Z,4.00
2022-09-28T15:02:11.121Z,7.07
2022-09-28T15:04:47.194Z,5.57
2022-09-28T15:07:33.379Z,4.00
2022-09-28T15:10:02.751Z,5.25
2022-09-28T15:12:32.797Z,4.80
2022-09-28T15:15:08.640Z,7.05
2022-09-28T15:17:40.876Z,1.63
2022-09-28T15:20:41.817Z,6.47
2022-09-28T15:23:37.315Z,4.20
2022-09-28T15:26:09.745Z,8.38
2022-09-28T15:28:39.455Z,4.68
2022-09-28T15:31:06.629Z,5.40
2022-09-28T15:33:53.700Z,6.18
2022-09-28T15:36:25.655Z,3.28
2022-09-28T15:38:59.543Z,8.57
2022-09-28T15:41:27.459Z,5.03
2022-09-28T15:44:12.336Z,6.65
2022-09-28T15:46:43.228Z,7.05
2022-09-28T15:49:45.496Z,5.05
2022-09-28T15:52:42.960Z,6.20
2022-09-28T15:55:21.112Z,10.80
2022-09-28T15:57:49.711Z,7.93
2022-09-28T16:00:28.993Z,8.70
2022-09-28T16:03:22.309Z,7.85
2022-09-28T16:05:58.479Z,5.32
2022-09-28T16:08:33.099Z,8.57
2022-09-28T16:11:18.406Z,6.47
2022-09-28T16:13:48.970Z,6.65
2022-09-28T16:16:17.230Z,4.57
2022-09-28T16:18:49.029Z,6.47
2022-09-28T16:21:39.266Z,10.50
2022-09-28T16:24:08.599Z,11.23
2022-09-28T16:26:39.039Z,5.95
2022-09-28T16:29:25.908Z,10.02
2022-09-28T16:31:53.314Z,16.13
2022-09-28T16:34:24.609Z,7.75
2022-09-28T16:36:51.728Z,9.25
2022-09-28T16:39:19.324Z,14.70
2022-09-28T16:41:53.974Z,10.38
2022-09-28T16:44:28.511Z,11.32
2022-09-28T16:46:58.584Z,11.18
2022-09-28T16:49:26.926Z,16.40
2022-09-28T16:51:54.334Z,13.65
2022-09-28T16:54:42.741Z,17.83
2022-09-28T16:57:15.072Z,20.25
2022-09-28T16:59:42.060Z,20.02
2022-09-28T17:05:14.012Z,23.20
2022-09-28T17:07:41.000Z,34.72
2022-09-28T17:10:50.114Z,36.83
2022-09-28T17:13:33.379Z,35.28
2022-09-28T17:18:40.140Z,24.88
2022-09-28T17:21:12.437Z,36.83
2022-09-28T17:23:39.669Z,29.92
2022-09-28T17:26:06.855Z,27.73
2022-09-28T17:28:36.421Z,28.83
2022-09-28T17:31:04.991Z,48.75
2022-09-28T17:33:32.394Z,30.77
2022-09-28T17:36:01.555Z,38.75
2022-09-28T17:38:28.562Z,25.33
2022-09-28T17:40:55.737Z,23.08
2022-09-28T17:43:22.769Z,13.20
2022-09-28T17:45:50.833Z,18.60
2022-09-28T17:48:23.474Z,14.13
2022-09-28T17:50:51.278Z,16.98
2022-09-28T17:53:18.399Z,10.55
2022-09-28T17:55:47.891Z,8.30
2022-09-28T17:58:16.778Z,14.18
2022-09-28T18:00:46.123Z,10.90
2022-09-28T18:03:16.308Z,14.68
2022-09-28T18:05:54.074Z,15.93
2022-09-28T18:08:23.053Z,40.92
2022-09-28T18:10:50.740Z,18.80
2022-09-28T18:13:18.182Z,14.95
2022-09-28T18:15:45.170Z,15.60
2022-09-28T18:18:13.062Z,10.07
2022-09-28T18:20:41.683Z,17.27
2022-09-28T18:23:08.857Z,18.35
2022-09-28T18:25:39.695Z,13.30
2022-09-28T18:28:07.115Z,14.90
2022-09-28T18:30:34.370Z,20.23
2022-09-28T18:33:01.877Z,17.20
2022-09-28T18:35:29.255Z,14.20
2022-09-28T18:37:56.790Z,18.92
2022-09-28T18:40:24.236Z,12.90
2022-09-28T18:42:52.238Z,17.98
2022-09-28T18:45:19.281Z,10.20
2022-09-28T18:47:46.944Z,16.77
2022-09-28T18:50:15.733Z,12.15
2022-09-28T18:52:45.002Z,13.98
2022-09-28T18:55:12.698Z,15.25
2022-09-28T18:57:41.705Z,9.00
2022-09-28T19:00:11.726Z,15.52
2022-09-28T19:02:39.284Z,17.30
2022-09-28T19:05:07.271Z,16.50
2022-09-28T19:07:34.839Z,24.42
2022-09-28T19:10:02.025Z,16.88
2022-09-28T19:12:29.557Z,10.63
2022-09-28T19:14:56.585Z,15.93
2022-09-28T19:17:24.129Z,16.67
2022-09-28T19:19:52.113Z,30.85
2022-09-28T19:22:19.302Z,32.22
2022-09-28T19:24:46.224Z,25.65
2022-09-28T19:27:13.971Z,18.67
2022-09-28T19:29:40.983Z,13.35
2022-09-28T19:32:08.255Z,14.63
2022-09-28T19:34:35.481Z,21.20
2022-09-28T19:37:04.040Z,18.00
2022-09-28T19:39:31.164Z,16.63
2022-09-28T19:42:00.505Z,11.32
2022-09-28T19:44:28.894Z,14.13
2022-09-28T19:47:08.234Z,15.50
2022-09-28T19:49:37.519Z,17.77
2022-09-28T19:52:13.259Z,15.75
2022-09-28T19:57:27.884Z,15.70
2022-09-28T20:00:00.910Z,14.43
2022-09-28T20:02:33.894Z,26.70
2022-09-28T20:05:03.126Z,16.00
2022-09-28T20:07:33.075Z,14.02
2022-09-28T20:10:01.017Z,14.77
2022-09-28T20:12:27.920Z,20.45
2022-09-28T20:14:55.182Z,20.90
2022-09-28T20:17:22.867Z,20.60
2022-09-28T20:19:51.927Z,13.38
2022-09-28T20:22:19.443Z,18.70
2022-09-28T20:24:47.590Z,14.48
2022-09-28T20:27:14.598Z,20.42
2022-09-28T20:29:43.183Z,18.13
2022-09-28T20:32:16.441Z,23.17
2022-09-28T20:34:43.893Z,17.63
2022-09-28T20:37:13.766Z,18.20
2022-09-28T20:39:44.804Z,15.10
2022-09-28T20:42:12.654Z,19.50
2022-09-28T20:44:39.524Z,23.08
2022-09-28T20:47:08.317Z,30.73
2022-09-28T20:49:37.052Z,28.67
2022-09-28T20:52:04.231Z,20.13
2022-09-28T20:54:31.186Z,30.73
2022-09-28T20:56:58.518Z,21.35
2022-09-28T20:59:26.599Z,23.70
2022-09-28T21:01:56.520Z,26.05
2022-09-28T21:04:24.523Z,20.80
2022-09-28T21:06:52.006Z,25.52
2022-09-28T21:09:19.540Z,27.73
2022-09-28T21:11:47.106Z,20.00
2022-09-28T21:14:14.253Z,22.92
2022-09-28T21:16:41.131Z,45.95
2022-09-28T21:19:08.525Z,15.95
2022-09-28T21:21:35.603Z,20.58
2022-09-28T21:24:03.173Z,10.50
2022-09-28T21:26:31.715Z,34.50
2022-09-28T21:29:02.059Z,40.47
2022-09-28T21:31:33.002Z,26.05
2022-09-28T21:34:00.860Z,29.15
2022-09-28T21:36:27.732Z,37.60
2022-09-28T21:38:56.210Z,23.75
2022-09-28T21:41:26.019Z,31.25
2022-09-28T21:43:53.714Z,31.30
2022-09-28T21:46:21.225Z,16.17
2022-09-28T21:48:53.616Z,12.68
2022-09-28T21:51:21.456Z,23.10
2022-09-28T21:53:49.617Z,21.02
2022-09-28T21:56:17.615Z,26.98
2022-09-28T21:58:44.505Z,20.33
2022-09-28T22:01:20.855Z,23.52
2022-09-28T22:03:51.011Z,31.95
2022-09-28T22:06:23.722Z,44.65
2022-09-28T22:08:51.526Z,35.95
2022-09-28T22:11:21.371Z,39.72
2022-09-28T22:13:54.689Z,38.30
2022-09-28T22:16:24.672Z,27.48
2022-09-28T22:18:51.682Z,33.88
2022-09-28T22:21:24.448Z,41.95
2022-09-28T22:23:52.517Z,42.88
2022-09-28T22:26:25.883Z,35.70
2022-09-28T22:28:58.408Z,34.42
2022-09-28T22:31:29.575Z,30.27
2022-09-28T22:33:57.433Z,24.95
2022-09-28T22:36:26.001Z,18.25
2022-09-28T22:38:55.604Z,18.75
2022-09-28T22:41:22.523Z,21.80
2022-09-28T22:43:51.255Z,43.83
2022-09-28T22:46:24.676Z,24.20
2022-09-28T22:48:54.159Z,28.90
2022-09-28T22:51:22.286Z,28.00
2022-09-28T22:53:50.331Z,26.55
2022-09-28T22:56:19.191Z,26.48
2022-09-28T22:58:47.079Z,22.08
2022-09-28T23:01:18.019Z,19.20
2022-09-28T23:03:45.730Z,28.77
2022-09-28T23:06:15.063Z,24.90
2022-09-28T23:08:43.549Z,17.60
2022-09-28T23:11:10.535Z,28.25
2022-09-28T23:13:39.588Z,17.38
2022-09-28T23:16:08.876Z,34.45
2022-09-28T23:18:38.506Z,23.17
2022-09-28T23:21:07.919Z,25.00
2022-09-28T23:23:35.385Z,29.67
2022-09-28T23:26:14.302Z,28.13
2022-09-28T23:28:42.282Z,21.83
2022-09-28T23:31:15.482Z,26.13
2022-09-28T23:33:43.064Z,20.02
2022-09-28T23:36:10.042Z,30.70
2022-09-28T23:38:37.725Z,27.25
2022-09-28T23:41:05.502Z,28.08
2022-09-28T23:43:33.079Z,29.33
2022-09-28T23:46:00.112Z,33.60
2022-09-28T23:48:27.618Z,30.63
2022-09-28T23:50:54.533Z,34.05
2022-09-28T23:53:21.783Z,29.63
2022-09-28T23:55:49.067Z,37.92
2022-09-28T23:58:16.009Z,33.75
